Time;durP1;ratioP1;P1;durP2;ratioP2;P2;SDS_P1;SDS_P2;PMS_P1;PMS_P2;Temp;Humidity;BMP_temperature;BMP_pressure;BME280_temperature;BME280_humidity;BME280_pressure;Samples;Min_cycle;Max_cycle;Signal;HPM_P1;HPM_P2
2022/02/02 00:01:44;;;;;;;3.33;1.63;;;10.20;99.90;;;;;;5038276;28;20525;-78
2022/02/02 00:04:13;;;;;;;6.93;1.63;;;10.20;99.90;;;;;;5042327;28;20175;-87
2022/02/02 00:06:57;;;;;;;9.30;2.17;;;10.20;99.90;;;;;;5040048;28;20250;-86
2022/02/02 00:09:23;;;;;;;6.97;1.73;;;10.20;99.90;;;;;;5039537;28;20215;-86
2022/02/02 00:20:29;;;;;;;7.93;1.52;;;10.30;99.90;;;;;;5040090;28;20507;-88
2022/02/02 00:22:59;;;;;;;1.98;1.00;;;10.40;99.90;;;;;;5039531;28;20203;-84
2022/02/02 00:25:32;;;;;;;9.25;1.65;;;10.40;99.90;;;;;;5040053;28;20171;-85
2022/02/02 00:28:00;;;;;;;6.57;1.63;;;10.40;99.90;;;;;;5038406;28;20152;-87
2022/02/02 00:30:31;;;;;;;5.72;1.27;;;10.40;99.90;;;;;;5042590;28;20171;-84
2022/02/02 00:33:20;;;;;;;4.22;1.30;;;10.50;99.90;;;;;;5041154;28;20205;-87
2022/02/02 00:35:56;;;;;;;12.10;1.40;;;10.50;99.90;;;;;;5039902;28;20164;-82
2022/02/02 00:38:22;;;;;;;13.25;1.48;;;10.40;99.90;;;;;;5038442;28;20171;-88
2022/02/02 00:40:47;;;;;;;5.70;2.03;;;10.40;99.90;;;;;;5040822;28;20647;-87
2022/02/02 00:43:13;;;;;;;5.93;1.73;;;10.40;99.90;;;;;;5039316;28;20295;-88
2022/02/02 00:45:44;;;;;;;9.00;1.85;;;10.50;99.90;;;;;;5035859;28;20223;-87
2022/02/02 00:48:12;;;;;;;4.95;1.60;;;10.50;99.90;;;;;;5035363;28;20194;-79
2022/02/02 00:50:37;;;;;;;7.03;1.65;;;10.40;99.90;;;;;;5035791;28;20223;-87
2022/02/02 00:53:03;;;;;;;7.40;1.83;;;10.40;99.90;;;;;;5035851;28;20184;-88
2022/02/02 00:55:32;;;;;;;7.32;2.22;;;10.30;99.90;;;;;;5035839;28;20243;-86
2022/02/02 00:57:59;;;;;;;4.03;1.67;;;10.40;99.90;;;;;;5035537;28;20577;-82
2022/02/02 01:00:24;;;;;;;7.25;1.40;;;10.30;99.90;;;;;;5035617;28;20259;-86
2022/02/02 01:02:50;;;;;;;7.43;1.75;;;10.40;99.90;;;;;;5035315;28;20629;-83
2022/02/02 01:05:16;;;;;;;10.93;1.60;;;10.40;99.90;;;;;;5035145;28;20263;-86
2022/02/02 01:10:32;;;;;;;8.27;1.85;;;10.20;99.90;;;;;;5035247;28;20203;-82
2022/02/02 01:29:03;;;;;;;4.95;1.70;;;10.20;99.90;;;;;;5034673;28;20219;-81
2022/02/02 01:31:29;;;;;;;5.85;1.73;;;10.10;99.90;;;;;;5035106;28;20168;-86
2022/02/02 01:33:54;;;;;;;10.73;2.25;;;10.10;99.90;;;;;;5035127;28;20186;-81
2022/02/02 01:36:20;;;;;;;4.53;1.58;;;10.10;99.90;;;;;;5035000;28;20620;-87
2022/02/02 01:38:48;;;;;;;5.25;2.13;;;10.20;99.90;;;;;;5042489;28;20171;-88
2022/02/02 01:41:22;;;;;;;9.85;1.80;;;10.00;99.90;;;;;;5050593;28;20620;-88
2022/02/02 01:44:05;;;;;;;7.82;2.03;;;10.00;99.90;;;;;;5053692;28;20148;-88
2022/02/02 01:46:35;;;;;;;11.23;2.08;;;10.00;99.90;;;;;;5056217;28;20144;-80
2022/02/02 01:54:32;;;;;;;7.55;1.65;;;10.00;99.90;;;;;;5046104;28;20176;-86
2022/02/02 01:57:02;;;;;;;15.35;2.30;;;10.00;99.90;;;;;;5043427;28;20163;-81
2022/02/02 01:59:40;;;;;;;6.70;1.40;;;10.10;99.90;;;;;;5043506;28;20174;-85
2022/02/02 02:02:12;;;;;;;20.88;2.15;;;10.10;99.90;;;;;;5044769;28;20197;-85
2022/02/02 02:04:43;;;;;;;9.80;2.17;;;10.00;99.90;;;;;;5043152;28;20163;-86
2022/02/02 02:07:12;;;;;;;8.77;1.67;;;10.10;99.90;;;;;;5026903;28;20174;-85
2022/02/02 02:09:38;;;;;;;8.10;1.30;;;10.10;99.90;;;;;;5044206;28;20210;-88
2022/02/02 02:12:07;;;;;;;8.50;1.92;;;10.00;99.90;;;;;;5043482;28;20542;-88
2022/02/02 02:14:45;;;;;;;5.75;1.25;;;10.10;99.90;;;;;;5042404;28;20647;-88
2022/02/02 02:17:12;;;;;;;8.82;1.48;;;10.10;99.90;;;;;;5043124;28;20172;-88
2022/02/02 02:19:44;;;;;;;9.85;1.75;;;10.20;99.90;;;;;;5044899;28;20216;-83
2022/02/02 02:22:18;;;;;;;11.55;1.83;;;10.10;99.90;;;;;;5055217;28;20205;-80
2022/02/02 02:24:44;;;;;;;7.70;1.98;;;10.10;99.90;;;;;;5056962;28;20156;-82
2022/02/02 02:27:13;;;;;;;11.70;2.67;;;10.10;99.90;;;;;;5051390;28;20167;-87
2022/02/02 02:56:15;;;;;;;7.07;1.92;;;9.80;99.90;;;;;;5033592;28;20199;-87
2022/02/02 02:59:04;;;;;;;6.28;2.00;;;9.80;99.90;;;;;;5032654;28;20624;-83
2022/02/02 03:02:00;;;;;;;5.68;1.90;;;9.80;99.90;;;;;;5033227;28;20176;-81
2022/02/02 03:51:03;;;;;;;7.10;2.03;;;9.40;99.90;;;;;;5036765;28;20195;-87
2022/02/02 03:53:45;;;;;;;8.27;1.52;;;9.50;99.90;;;;;;5036134;28;20246;-85
2022/02/02 03:59:02;;;;;;;4.78;1.60;;;9.40;99.90;;;;;;5037850;28;20207;-82
2022/02/02 04:07:03;;;;;;;13.43;2.55;;;9.40;99.90;;;;;;5036955;28;20634;-87
2022/02/02 04:09:33;;;;;;;4.25;1.58;;;9.30;99.90;;;;;;5035092;28;20203;-85
2022/02/02 04:17:25;;;;;;;7.63;1.75;;;9.50;99.90;;;;;;5036975;28;20509;-89
2022/02/02 04:57:59;;;;;;;7.63;1.85;;;10.00;99.90;;;;;;5035063;28;20167;-81
2022/02/02 05:03:36;;;;;;;7.28;1.63;;;10.10;99.90;;;;;;5042725;28;20196;-88
2022/02/02 05:11:16;;;;;;;8.13;2.50;;;10.10;99.90;;;;;;5058235;28;20187;-89
2022/02/02 05:43:21;;;;;;;10.73;2.28;;;10.00;99.90;;;;;;5035268;28;20221;-87
2022/02/02 05:54:05;;;;;;;3.75;1.75;;;10.00;99.90;;;;;;5034406;28;20218;-79
2022/02/02 05:56:36;;;;;;;1.80;1.40;;;10.00;99.90;;;;;;5034244;28;20214;-79
2022/02/02 05:59:03;;;;;;;3.50;2.20;;;9.90;99.90;;;;;;5034014;28;20167;-84
2022/02/02 06:01:29;;;;;;;5.53;1.38;;;10.00;99.90;;;;;;5034573;28;20646;-89
2022/02/02 06:03:59;;;;;;;5.65;1.45;;;10.00;99.90;;;;;;5035052;28;20206;-88
2022/02/02 06:06:26;;;;;;;5.15;1.48;;;10.00;99.90;;;;;;5045152;28;20184;-87
2022/02/02 06:08:54;;;;;;;3.80;1.40;;;10.10;99.90;;;;;;5040449;28;20198;-82
2022/02/02 06:11:23;;;;;;;3.53;1.52;;;10.10;99.90;;;;;;5056849;28;20168;-88
2022/02/02 06:13:52;;;;;;;7.32;1.50;;;10.10;99.90;;;;;;5054831;28;20222;-89
2022/02/02 06:16:19;;;;;;;6.05;1.23;;;10.10;99.90;;;;;;5054648;28;20255;-81
2022/02/02 06:18:53;;;;;;;10.30;1.80;;;10.10;99.90;;;;;;5045855;28;20279;-81
2022/02/02 06:21:39;;;;;;;6.00;1.77;;;10.10;99.90;;;;;;5048970;28;20227;-87
2022/02/02 06:24:13;;;;;;;4.35;1.80;;;10.10;99.90;;;;;;5041657;28;20218;-88
2022/02/02 06:26:47;;;;;;;3.97;1.77;;;10.20;99.90;;;;;;5042290;28;20160;-86
2022/02/02 06:29:13;;;;;;;3.88;1.50;;;10.10;99.90;;;;;;5034036;28;20199;-88
2022/02/02 06:31:40;;;;;;;4.72;1.60;;;10.20;99.90;;;;;;5033893;28;20184;-88
2022/02/02 06:34:09;;;;;;;2.13;1.75;;;10.20;99.90;;;;;;5053037;28;20279;-79
2022/02/02 06:36:36;;;;;;;6.43;1.92;;;10.10;99.90;;;;;;5054585;28;20168;-79
2022/02/02 06:39:21;;;;;;;2.30;1.50;;;10.10;99.90;;;;;;5050972;28;20232;-86
2022/02/02 06:41:47;;;;;;;3.80;1.50;;;10.10;99.90;;;;;;5041465;28;20191;-81
2022/02/02 06:44:13;;;;;;;6.32;1.77;;;10.10;99.90;;;;;;5041516;28;20166;-86
2022/02/02 06:46:40;;;;;;;3.10;1.60;;;10.10;99.90;;;;;;5042643;28;20167;-87
2022/02/02 06:49:06;;;;;;;5.45;1.55;;;10.10;99.90;;;;;;5038493;28;20195;-82
2022/02/02 06:51:37;;;;;;;6.30;1.83;;;10.10;99.90;;;;;;5042008;28;20164;-87
2022/02/02 06:54:42;;;;;;;5.57;1.73;;;10.20;99.90;;;;;;5039062;28;20199;-89
2022/02/02 06:57:18;;;;;;;4.80;1.42;;;10.10;99.90;;;;;;5041887;28;20156;-87
2022/02/02 07:00:21;;;;;;;6.78;1.35;;;10.20;99.90;;;;;;5039729;28;20174;-88
2022/02/02 07:03:11;;;;;;;8.98;2.10;;;10.20;99.90;;;;;;5026277;28;20568;-86
2022/02/02 07:05:52;;;;;;;4.43;1.50;;;10.30;99.90;;;;;;5043070;28;20171;-84
2022/02/02 07:11:53;;;;;;;5.95;1.75;;;10.30;99.90;;;;;;5045053;28;20187;-81
2022/02/02 07:15:12;;;;;;;7.82;1.80;;;10.30;99.90;;;;;;5044236;28;20529;-87
2022/02/02 07:20:20;;;;;;;3.75;2.08;;;10.40;99.90;;;;;;5040536;28;20180;-86
2022/02/02 07:23:11;;;;;;;4.60;1.92;;;10.40;99.90;;;;;;5043665;28;20743;-80
2022/02/02 07:28:19;;;;;;;7.57;2.13;;;10.30;99.90;;;;;;5045438;28;20160;-86
2022/02/02 07:31:07;;;;;;;4.57;1.67;;;10.30;99.90;;;;;;5041179;28;20178;-87
2022/02/02 07:33:38;;;;;;;4.55;2.40;;;10.20;99.90;;;;;;5037501;28;20640;-86
2022/02/02 07:36:15;;;;;;;5.38;2.72;;;10.20;99.90;;;;;;5037421;28;20164;-88
2022/02/02 07:39:04;;;;;;;4.50;2.20;;;10.20;99.90;;;;;;5038314;28;20629;-86
2022/02/02 07:41:36;;;;;;;10.35;2.60;;;10.10;99.90;;;;;;5038669;28;20176;-81
2022/02/02 07:44:14;;;;;;;10.07;5.70;;;10.10;99.90;;;;;;5037877;28;20243;-87
2022/02/02 07:46:45;;;;;;;14.68;6.82;;;10.10;99.90;;;;;;5038445;28;20161;-86
2022/02/02 07:49:11;;;;;;;18.70;3.40;;;10.20;99.90;;;;;;5036789;28;20593;-83
2022/02/02 07:51:38;;;;;;;10.30;3.30;;;10.20;99.90;;;;;;5037492;28;20194;-81
2022/02/02 07:54:08;;;;;;;6.97;2.38;;;10.20;99.90;;;;;;5035846;28;20532;-86
2022/02/02 07:56:41;;;;;;;10.98;2.25;;;10.40;99.90;;;;;;5037359;28;20159;-82
2022/02/02 07:59:17;;;;;;;8.27;2.50;;;10.20;99.90;;;;;;5037018;28;20525;-84
2022/02/02 08:01:45;;;;;;;4.15;2.10;;;10.30;99.90;;;;;;5036577;28;20187;-84
2022/02/02 08:04:12;;;;;;;6.78;2.08;;;10.30;99.90;;;;;;5036281;28;20525;-91
2022/02/02 08:06:40;;;;;;;5.82;1.75;;;10.50;99.90;;;;;;5036764;28;20159;-83
2022/02/02 08:09:08;;;;;;;7.72;2.25;;;10.40;99.90;;;;;;5036258;28;20207;-77
2022/02/02 08:11:37;;;;;;;5.95;2.42;;;10.40;99.90;;;;;;5035954;28;20517;-83
2022/02/02 08:14:03;;;;;;;7.53;1.60;;;10.60;99.90;;;;;;5035622;28;20172;-81
2022/02/02 08:16:30;;;;;;;9.50;2.42;;;10.50;99.90;;;;;;5035064;28;20172;-86
2022/02/02 08:18:56;;;;;;;5.88;2.15;;;10.50;99.90;;;;;;5035963;28;20168;-82
2022/02/02 08:21:23;;;;;;;6.75;1.73;;;10.70;99.90;;;;;;5035978;28;20164;-82
2022/02/02 08:23:52;;;;;;;9.30;3.00;;;10.90;99.90;;;;;;5036411;28;20174;-82
2022/02/02 08:26:17;;;;;;;9.68;2.40;;;10.90;99.90;;;;;;5037643;28;20180;-85
2022/02/02 08:28:45;;;;;;;5.68;1.83;;;10.90;99.90;;;;;;5035652;28;20556;-80
2022/02/02 08:31:11;;;;;;;4.45;1.60;;;10.90;99.90;;;;;;5035914;28;20164;-82
2022/02/02 08:33:40;;;;;;;7.32;1.88;;;11.00;99.90;;;;;;5035843;28;20202;-88
2022/02/02 08:36:11;;;;;;;4.57;1.33;;;11.00;99.90;;;;;;5039764;28;20194;-87
2022/02/02 08:38:57;;;;;;;4.85;1.73;;;10.90;99.90;;;;;;5059494;28;20163;-84
2022/02/02 08:41:29;;;;;;;10.25;1.90;;;10.80;99.90;;;;;;5071079;28;20206;-78
2022/02/02 08:44:03;;;;;;;17.23;2.33;;;10.80;99.90;;;;;;5063417;28;20188;-79
2022/02/02 08:48:58;;;;;;;3.42;1.70;;;10.80;99.90;;;;;;5066799;28;20207;-77
2022/02/02 08:51:28;;;;;;;6.13;1.40;;;10.80;99.90;;;;;;5054675;28;20175;-89
2022/02/02 08:54:14;;;;;;;3.67;1.48;;;10.70;99.90;;;;;;5055273;28;20761;-78
2022/02/02 08:59:23;;;;;;;4.28;1.90;;;10.60;99.90;;;;;;5055049;28;20171;-81
2022/02/02 09:01:54;;;;;;;14.38;2.30;;;10.60;99.90;;;;;;5055458;28;20179;-87
2022/02/02 09:07:05;;;;;;;4.90;2.10;;;10.60;99.90;;;;;;5044383;28;20304;-78
2022/02/02 09:25:53;;;;;;;11.52;2.20;;;10.50;99.90;;;;;;5054956;28;20185;-82
2022/02/02 09:33:56;;;;;;;13.85;2.50;;;10.60;99.90;;;;;;5052559;28;20209;-88
2022/02/02 09:36:28;;;;;;;8.80;1.98;;;10.70;99.90;;;;;;5055450;28;20729;-85
2022/02/02 09:38:57;;;;;;;7.60;2.33;;;10.80;99.90;;;;;;5054536;28;20159;-87
2022/02/02 09:44:00;;;;;;;11.57;2.25;;;10.80;99.90;;;;;;5054761;28;20175;-89
2022/02/02 09:46:33;;;;;;;5.88;2.28;;;10.70;99.90;;;;;;5054914;28;20278;-87
2022/02/02 09:49:06;;;;;;;6.50;2.35;;;10.60;99.90;;;;;;5061329;28;20199;-88
2022/02/02 09:51:37;;;;;;;19.27;3.33;;;10.50;99.90;;;;;;5059002;28;20174;-89
2022/02/02 09:54:11;;;;;;;8.98;3.00;;;10.70;99.90;;;;;;5047486;28;20297;-92
2022/02/02 09:59:36;;;;;;;4.30;2.70;;;10.70;99.90;;;;;;5054752;28;20175;-91
2022/02/02 10:03:01;;;;;;;9.40;2.28;;;10.70;99.90;;;;;;5056994;28;20642;-84
2022/02/02 10:16:21;;;;;;;6.85;1.17;;;11.10;99.90;;;;;;5029304;28;20194;-90
2022/02/02 10:18:47;;;;;;;12.93;2.17;;;11.10;99.90;;;;;;5054211;28;20169;-81
2022/02/02 10:21:13;;;;;;;4.60;1.90;;;11.40;99.90;;;;;;5053353;28;20218;-88
2022/02/02 10:23:41;;;;;;;3.10;1.40;;;11.40;99.90;;;;;;5055497;28;20227;-92
2022/02/02 10:26:17;;;;;;;5.70;1.40;;;11.20;99.90;;;;;;5037375;28;20178;-88
2022/02/02 10:28:42;;;;;;;10.13;2.83;;;11.20;99.90;;;;;;5043484;28;20201;-91
2022/02/02 10:31:08;;;;;;;5.10;2.00;;;11.20;99.90;;;;;;5056685;28;20195;-91
2022/02/02 10:33:35;;;;;;;4.57;1.52;;;11.00;99.90;;;;;;5055760;28;20192;-92
2022/02/02 10:36:15;;;;;;;4.38;1.85;;;11.00;99.90;;;;;;5055829;28;20163;-90
2022/02/02 10:38:49;;;;;;;9.68;2.63;;;11.10;99.90;;;;;;5053859;28;20163;-92
2022/02/02 10:41:29;;;;;;;4.38;1.90;;;11.10;99.90;;;;;;5067475;28;20175;-90
2022/02/02 10:43:58;;;;;;;5.88;1.85;;;11.00;99.90;;;;;;5071916;28;20218;-92
2022/02/02 10:46:50;;;;;;;4.95;1.85;;;11.10;99.90;;;;;;5070941;28;20171;-94
2022/02/02 10:49:24;;;;;;;3.80;1.30;;;11.10;99.90;;;;;;5066540;28;20210;-79
2022/02/02 10:51:57;;;;;;;1.63;1.50;;;11.20;99.90;;;;;;5062046;28;20187;-93
2022/02/02 10:54:37;;;;;;;4.10;1.90;;;11.20;99.90;;;;;;5061909;28;20230;-93
2022/02/02 10:57:15;;;;;;;3.47;1.80;;;11.30;99.90;;;;;;5041929;28;20177;-85
2022/02/02 11:07:57;;;;;;;13.23;2.42;;;11.30;99.90;;;;;;5034075;28;20182;-79
2022/02/02 11:10:25;;;;;;;4.07;2.00;;;11.50;99.90;;;;;;5033163;28;20203;-82
2022/02/02 11:12:54;;;;;;;2.90;2.17;;;11.40;99.90;;;;;;5033527;28;20713;-84
2022/02/02 11:15:44;;;;;;;5.05;2.33;;;11.50;99.90;;;;;;5033088;28;20179;-79
2022/02/02 11:18:21;;;;;;;6.03;2.35;;;11.30;99.90;;;;;;5033850;28;20263;-82
2022/02/02 11:20:47;;;;;;;7.72;1.90;;;11.50;99.90;;;;;;5034700;28;20172;-83
2022/02/02 11:23:13;;;;;;;5.03;2.10;;;11.60;99.90;;;;;;5033470;28;20219;-85
2022/02/02 11:25:47;;;;;;;3.22;1.75;;;11.80;99.90;;;;;;5033620;28;20179;-84
2022/02/02 11:28:32;;;;;;;2.03;1.23;;;11.80;99.90;;;;;;5033626;28;20748;-90
2022/02/02 11:31:14;;;;;;;4.97;1.98;;;11.80;99.90;;;;;;5034332;28;20172;-89
2022/02/02 11:33:51;;;;;;;3.58;1.73;;;12.10;99.90;;;;;;5033777;28;20218;-80
2022/02/02 11:36:22;;;;;;;6.20;3.65;;;12.10;99.90;;;;;;5041023;28;20203;-78
2022/02/02 11:38:51;;;;;;;5.40;2.67;;;12.30;99.90;;;;;;5044215;28;20163;-78
2022/02/02 11:44:11;;;;;;;4.85;1.73;;;12.20;99.90;;;;;;5034622;28;20180;-77
2022/02/02 11:49:55;;;;;;;14.15;4.18;;;12.30;99.90;;;;;;5033720;28;20720;-81
2022/02/02 11:52:44;;;;;;;3.08;2.58;;;12.60;99.90;;;;;;5036772;28;20603;-85
2022/02/02 11:55:12;;;;;;;3.58;3.03;;;12.70;99.90;;;;;;5037315;28;20629;-85
2022/02/02 11:58:18;;;;;;;3.83;2.70;;;12.60;99.90;;;;;;5038132;28;20172;-78
2022/02/02 12:01:10;;;;;;;3.58;2.05;;;12.50;99.90;;;;;;5048611;28;20194;-82
2022/02/02 12:03:48;;;;;;;2.78;2.15;;;12.50;99.90;;;;;;5038000;28;20204;-87
2022/02/02 12:47:50;;;;;;;7.38;5.13;;;11.60;99.90;;;;;;5034713;28;20345;-77
2022/02/02 12:56:24;;;;;;;6.93;6.32;;;11.10;99.90;;;;;;5035041;28;20250;-80
2022/02/02 12:58:51;;;;;;;7.78;6.38;;;11.40;99.90;;;;;;5035709;28;20188;-93
2022/02/02 13:01:19;;;;;;;7.93;6.15;;;11.50;99.90;;;;;;5035071;28;20626;-78
2022/02/02 13:03:46;;;;;;;7.00;6.38;;;11.50;99.90;;;;;;5034853;28;20175;-83
2022/02/02 13:06:16;;;;;;;8.68;6.60;;;11.60;99.90;;;;;;5034770;28;20160;-80
2022/02/02 13:08:43;;;;;;;8.15;7.35;;;11.50;99.90;;;;;;5035500;28;20282;-89
2022/02/02 13:11:09;;;;;;;8.73;7.93;;;11.50;99.90;;;;;;5035292;28;20229;-87
2022/02/02 13:13:35;;;;;;;9.55;7.38;;;11.60;99.90;;;;;;5035728;28;20262;-81
2022/02/02 13:16:14;;;;;;;11.18;8.18;;;11.60;99.90;;;;;;5035046;28;20175;-78
2022/02/02 13:18:44;;;;;;;9.77;8.45;;;11.60;99.90;;;;;;5035231;28;20624;-87
2022/02/02 13:21:15;;;;;;;9.15;7.88;;;11.60;99.90;;;;;;5037127;28;20176;-90
2022/02/02 13:26:26;;;;;;;8.10;7.25;;;11.70;99.90;;;;;;5036352;28;20540;-87
2022/02/02 13:31:58;;;;;;;8.70;7.90;;;11.80;99.90;;;;;;5035331;28;20241;-78
2022/02/02 13:34:51;;;;;;;10.52;6.68;;;11.90;99.90;;;;;;5035147;28;20175;-88
2022/02/02 13:42:53;;;;;;;7.15;6.50;;;12.00;99.90;;;;;;5034709;28;20590;-79
2022/02/02 14:04:45;;;;;;;10.23;6.70;;;11.60;99.90;;;;;;5034331;28;20183;-87
2022/02/02 14:33:52;;;;;;;7.80;7.07;;;12.10;99.90;;;;;;5011862;28;20222;-90
2022/02/02 14:36:22;;;;;;;9.98;7.07;;;12.40;99.90;;;;;;5012010;28;20202;-88
2022/02/02 14:39:45;;;;;;;9.13;6.43;;;12.30;99.90;;;;;;5023232;28;20539;-89
2022/02/02 14:46:37;;;;;;;11.30;5.95;;;12.20;99.90;;;;;;5033951;28;20180;-88
2022/02/02 14:49:11;;;;;;;6.82;6.13;;;12.00;99.90;;;;;;5032163;28;20253;-89
2022/02/02 15:29:16;;;;;;;4.28;3.78;;;11.50;99.90;;;;;;5037021;28;20215;-78
2022/02/02 15:31:43;;;;;;;3.92;3.55;;;11.50;99.90;;;;;;5036519;28;20233;-83
2022/02/02 15:34:14;;;;;;;4.93;4.53;;;11.50;99.90;;;;;;5036468;28;20573;-81
2022/02/02 15:39:17;;;;;;;16.65;6.43;;;11.20;99.90;;;;;;5036531;28;20175;-89
2022/02/02 15:42:11;;;;;;;7.82;6.30;;;11.20;99.90;;;;;;5035010;28;20183;-90
2022/02/02 15:58:19;;;;;;;3.20;2.97;;;11.30;99.90;;;;;;5036261;28;20175;-85
2022/02/02 16:03:24;;;;;;;5.65;4.38;;;11.20;99.90;;;;;;5036230;28;20221;-85
2022/02/02 16:05:53;;;;;;;6.88;4.43;;;11.30;99.90;;;;;;5036397;28;20243;-89
2022/02/02 16:08:23;;;;;;;4.72;4.25;;;11.30;99.90;;;;;;5036517;28;20164;-89
2022/02/02 16:11:01;;;;;;;5.97;4.97;;;11.40;99.90;;;;;;5036164;28;20538;-89
2022/02/02 16:16:03;;;;;;;7.43;6.18;;;11.80;99.90;;;;;;5036124;28;20207;-80
2022/02/02 16:18:37;;;;;;;7.68;5.88;;;11.70;99.90;;;;;;5037958;28;20175;-87
2022/02/02 16:35:08;;;;;;;7.70;5.97;;;11.60;99.90;;;;;;5035915;28;20171;-89
2022/02/02 16:40:00;;;;;;;8.48;7.75;;;11.30;99.90;;;;;;5036296;28;20211;-79
2022/02/02 16:45:12;;;;;;;12.10;6.25;;;11.20;99.90;;;;;;5036154;28;20672;-81
2022/02/02 16:47:38;;;;;;;6.78;6.18;;;11.10;99.90;;;;;;5034559;28;20178;-79
2022/02/02 16:50:05;;;;;;;8.00;7.00;;;11.10;99.90;;;;;;5035466;28;20203;-84
2022/02/02 16:52:33;;;;;;;11.52;7.82;;;11.10;99.90;;;;;;5035534;28;20233;-81
2022/02/02 16:55:03;;;;;;;8.80;7.10;;;11.20;99.90;;;;;;5035477;28;20579;-87
2022/02/02 16:57:46;;;;;;;12.35;7.82;;;11.20;99.90;;;;;;5035343;28;20164;-88
2022/02/02 17:32:51;;;;;;;11.52;10.20;;;11.40;99.90;;;;;;5034808;28;20382;-80
2022/02/02 17:38:02;;;;;;;21.17;11.82;;;11.40;99.90;;;;;;5035345;28;20176;-89
2022/02/02 17:43:38;;;;;;;12.93;10.07;;;11.20;99.90;;;;;;5034740;28;20230;-78
2022/02/02 18:02:56;;;;;;;16.48;10.65;;;11.00;99.90;;;;;;5034576;28;20172;-88
2022/02/02 18:21:16;;;;;;;9.57;7.47;;;11.20;99.90;;;;;;5034762;28;20171;-93
2022/02/02 18:31:23;;;;;;;8.52;7.63;;;11.20;99.90;;;;;;5047735;28;20210;-88
2022/02/02 18:36:33;;;;;;;12.23;9.43;;;11.20;99.90;;;;;;5035501;28;20172;-84
2022/02/02 18:50:11;;;;;;;7.50;6.80;;;11.20;99.90;;;;;;5050517;28;20233;-86
2022/02/02 19:01:43;;;;;;;9.10;7.45;;;11.30;99.90;;;;;;5043324;28;20599;-83
2022/02/02 20:11:31;;;;;;;14.93;11.80;;;11.60;99.90;;;;;;5067562;28;20631;-78
2022/02/02 20:13:58;;;;;;;17.70;13.55;;;11.50;99.90;;;;;;5075104;28;20175;-78
2022/02/02 20:16:24;;;;;;;18.85;13.70;;;11.50;99.90;;;;;;5063155;28;20159;-89
2022/02/02 20:18:52;;;;;;;18.25;13.48;;;11.60;99.90;;;;;;5067842;28;20270;-93
2022/02/02 20:21:21;;;;;;;20.85;14.10;;;11.50;99.90;;;;;;5059816;28;20175;-89
2022/02/02 20:23:49;;;;;;;19.98;14.98;;;11.50;99.90;;;;;;5061389;28;20246;-81
2022/02/02 20:26:18;;;;;;;22.15;14.73;;;11.80;99.90;;;;;;5059919;28;20577;-95
2022/02/02 20:28:45;;;;;;;18.50;14.85;;;11.70;99.90;;;;;;5062668;28;20164;-88
2022/02/02 20:31:12;;;;;;;19.35;13.90;;;11.70;99.90;;;;;;5061090;28;20171;-87
2022/02/02 20:33:37;;;;;;;27.13;16.60;;;11.60;99.90;;;;;;5060876;28;20202;-87
2022/02/02 20:36:04;;;;;;;23.65;14.90;;;11.70;99.90;;;;;;5062137;28;20163;-84
2022/02/02 20:38:31;;;;;;;24.42;17.20;;;11.70;99.90;;;;;;5059923;28;20182;-87
2022/02/02 20:40:57;;;;;;;29.88;16.92;;;11.50;99.90;;;;;;5062009;28;20627;-81
2022/02/02 20:43:31;;;;;;;23.40;17.70;;;11.50;99.90;;;;;;5059942;28;20203;-85
2022/02/02 20:46:11;;;;;;;26.90;17.42;;;11.70;99.90;;;;;;5060136;28;20612;-81
2022/02/02 21:10:30;;;;;;;29.50;17.45;;;11.20;99.90;;;;;;5058155;28;20218;-82
2022/02/02 21:15:43;;;;;;;23.40;16.45;;;11.20;99.90;;;;;;5067737;28;20197;-79
2022/02/02 21:18:16;;;;;;;25.25;16.92;;;11.20;99.90;;;;;;5067798;28;20173;-84
2022/02/02 21:20:54;;;;;;;24.02;17.50;;;11.30;99.90;;;;;;5049817;28;20182;-82
2022/02/02 21:28:30;;;;;;;30.77;18.02;;;11.30;99.90;;;;;;5051432;28;20183;-88
2022/02/02 21:30:56;;;;;;;31.27;17.50;;;11.30;99.90;;;;;;5064109;28;20186;-81
2022/02/02 21:33:21;;;;;;;26.02;16.80;;;11.20;99.90;;;;;;5067465;28;20197;-85
2022/02/02 21:35:56;;;;;;;25.55;17.75;;;11.30;99.90;;;;;;5064366;28;20170;-84
2022/02/02 21:38:37;;;;;;;26.75;16.55;;;11.30;99.90;;;;;;5067252;28;20233;-87
2022/02/02 21:41:03;;;;;;;31.05;17.90;;;11.20;99.90;;;;;;5062571;28;20174;-89
2022/02/02 21:43:30;;;;;;;27.33;16.40;;;11.20;99.90;;;;;;5055054;28;20190;-88
2022/02/02 21:45:56;;;;;;;27.95;16.92;;;11.10;99.90;;;;;;5057974;28;20215;-89
2022/02/02 21:48:28;;;;;;;32.78;17.75;;;11.00;99.90;;;;;;5065440;28;20293;-88
2022/02/02 21:50:58;;;;;;;27.08;17.05;;;10.90;99.90;;;;;;5064343;28;20722;-84
2022/02/02 21:53:24;;;;;;;29.45;17.65;;;11.00;99.90;;;;;;5062678;28;20266;-85
2022/02/02 21:55:50;;;;;;;32.85;19.15;;;11.00;99.90;;;;;;5059914;28;20217;-82
2022/02/02 21:58:15;;;;;;;26.00;17.80;;;11.00;99.90;;;;;;5063924;28;20156;-85
2022/02/02 22:00:42;;;;;;;33.85;17.90;;;11.10;99.90;;;;;;5073693;28;20167;-82
2022/02/02 22:03:09;;;;;;;30.05;17.23;;;11.10;99.90;;;;;;5070246;28;20178;-88
2022/02/02 22:05:40;;;;;;;28.55;16.90;;;10.90;99.90;;;;;;5066844;28;20167;-90
2022/02/02 22:08:09;;;;;;;34.70;15.98;;;10.80;99.90;;;;;;5059275;28;20167;-89
2022/02/02 22:10:35;;;;;;;31.98;17.38;;;10.90;99.90;;;;;;5062845;28;20199;-87
2022/02/02 22:13:01;;;;;;;32.47;15.65;;;10.90;99.90;;;;;;5060855;28;20183;-83
2022/02/02 22:15:36;;;;;;;21.48;15.10;;;10.90;99.90;;;;;;5060976;28;20262;-79
2022/02/02 22:18:02;;;;;;;25.05;15.23;;;11.00;99.90;;;;;;5059573;28;20167;-79
2022/02/02 22:20:29;;;;;;;21.70;14.48;;;11.00;99.90;;;;;;5065149;28;20206;-90
2022/02/02 22:22:55;;;;;;;19.27;14.48;;;11.00;99.90;;;;;;5070580;28;20613;-80
2022/02/02 22:25:27;;;;;;;20.33;13.30;;;10.90;99.90;;;;;;5075549;28;20193;-79
2022/02/02 22:27:54;;;;;;;21.38;13.88;;;10.90;99.90;;;;;;5077631;28;20155;-82
2022/02/02 22:30:19;;;;;;;21.30;13.32;;;10.80;99.90;;;;;;5068835;28;20203;-90
2022/02/02 22:32:46;;;;;;;18.25;11.82;;;11.00;99.90;;;;;;5069784;28;20167;-89
2022/02/02 22:35:11;;;;;;;29.95;12.68;;;11.10;99.90;;;;;;5066294;28;20612;-88
2022/02/02 22:37:37;;;;;;;17.90;12.27;;;11.10;99.90;;;;;;5074655;28;20162;-80
2022/02/02 22:40:20;;;;;;;17.80;10.32;;;10.90;99.90;;;;;;5076407;28;20178;-78
2022/02/02 22:42:45;;;;;;;12.30;9.88;;;10.80;99.90;;;;;;5065226;28;20568;-79
2022/02/02 22:45:12;;;;;;;17.75;10.07;;;10.80;99.90;;;;;;5063585;28;20167;-85
2022/02/02 22:47:44;;;;;;;20.40;9.63;;;10.80;99.90;;;;;;5060690;28;20174;-83
2022/02/02 22:50:11;;;;;;;18.60;9.13;;;10.90;99.90;;;;;;5061580;28;20209;-81
2022/02/02 22:52:39;;;;;;;11.90;9.73;;;11.00;99.90;;;;;;5061410;28;20195;-83
2022/02/02 22:55:06;;;;;;;11.50;8.80;;;10.80;99.90;;;;;;5062343;28;20175;-87
2022/02/02 22:57:32;;;;;;;11.15;8.20;;;10.70;99.90;;;;;;5063021;28;20180;-83
2022/02/02 22:59:57;;;;;;;15.40;7.47;;;10.70;99.90;;;;;;5060034;28;20170;-87
2022/02/02 23:04:49;;;;;;;8.95;7.43;;;10.80;99.90;;;;;;5060583;28;20187;-86
2022/02/02 23:07:15;;;;;;;10.23;7.10;;;10.70;99.90;;;;;;5059357;28;20175;-88
2022/02/02 23:09:43;;;;;;;19.20;7.60;;;10.60;99.90;;;;;;5064845;28;20187;-88
2022/02/02 23:12:10;;;;;;;12.55;7.90;;;10.60;99.90;;;;;;5053694;28;20210;-91
2022/02/02 23:14:38;;;;;;;9.98;6.75;;;10.70;99.90;;;;;;5052143;28;20171;-79
2022/02/02 23:17:05;;;;;;;13.77;7.75;;;10.90;99.90;;;;;;5053701;28;20250;-91
2022/02/02 23:19:34;;;;;;;10.18;6.20;;;11.00;99.90;;;;;;5053556;28;20250;-87
2022/02/02 23:22:01;;;;;;;14.27;7.60;;;10.90;99.90;;;;;;5053519;28;20294;-88
2022/02/02 23:24:29;;;;;;;11.82;6.55;;;10.80;99.90;;;;;;5053339;28;20175;-78
2022/02/02 23:26:56;;;;;;;9.75;6.53;;;10.80;99.90;;;;;;5053488;28;20164;-90
2022/02/02 23:29:23;;;;;;;9.25;6.90;;;10.90;99.90;;;;;;5053316;28;20672;-82
2022/02/02 23:31:48;;;;;;;9.18;6.38;;;10.70;99.90;;;;;;5053278;28;20183;-88
2022/02/02 23:34:14;;;;;;;7.03;5.82;;;10.40;99.90;;;;;;5053215;28;20646;-87
2022/02/02 23:36:40;;;;;;;14.68;6.80;;;10.70;99.90;;;;;;5052983;28;20700;-86
2022/02/02 23:39:06;;;;;;;7.88;6.03;;;10.80;99.90;;;;;;5051839;28;20698;-90
2022/02/02 23:44:13;;;;;;;13.20;5.68;;;10.60;99.90;;;;;;5053071;28;20167;-82
2022/02/02 23:46:48;;;;;;;12.95;4.57;;;10.40;99.90;;;;;;5055815;28;20658;-86
2022/02/02 23:49:21;;;;;;;5.35;4.38;;;10.40;99.90;;;;;;5056957;28;20248;-88
2022/02/02 23:51:48;;;;;;;13.13;3.80;;;10.50;99.90;;;;;;5056563;28;20189;-82
2022/02/02 23:54:16;;;;;;;6.50;3.92;;;10.30;99.90;;;;;;5056813;28;20171;-90
2022/02/02 23:56:56;;;;;;;4.70;4.20;;;10.40;99.90;;;;;;5056931;28;20163;-86
2022/02/02 23:59:29;;;;;;;7.55;4.00;;;10.40;99.90;;;;;;5057168;28;20175;-85
